Terminal Aerodrome Forecast
Issued by NWS

Home | Current Version | Previous Version | Text Only | Print | Product List | Glossary Off
Versions: 1 2 3 4 5 6 7 8 9 10 11 12 13 14 15 16 17 18 19 20 21 22

145
FTUS43 KABR 301017 AAB
TAFATY
TAF AMD
KATY 301017Z 3010/0106 31013KT P6SM OVC010
     FM301800 32018G26KT 5SM -SN OVC008
     FM010100 32012G20KT P6SM OVC008=

USA.gov is the U.S. government's official web portal to all federal, state and local government web resources and services.